sensor_id;sensor_type;location;lat;lon;timestamp;P1;durP1;ratioP1;P2;durP2;ratioP2
8480;SDS011;4277;51.354;6.740;2024-03-08T00:01:30;17.30;;;14.27;;
8480;SDS011;4277;51.354;6.740;2024-03-08T00:03:56;19.30;;;13.97;;
8480;SDS011;4277;51.354;6.740;2024-03-08T00:06:22;18.87;;;13.73;;
8480;SDS011;4277;51.354;6.740;2024-03-08T00:08:48;16.63;;;13.43;;
8480;SDS011;4277;51.354;6.740;2024-03-08T00:11:14;18.60;;;14.77;;
8480;SDS011;4277;51.354;6.740;2024-03-08T00:13:40;18.70;;;14.20;;
8480;SDS011;4277;51.354;6.740;2024-03-08T00:16:06;17.73;;;14.03;;
8480;SDS011;4277;51.354;6.740;2024-03-08T00:18:34;19.37;;;14.90;;
8480;SDS011;4277;51.354;6.740;2024-03-08T00:21:00;17.00;;;13.80;;
8480;SDS011;4277;51.354;6.740;2024-03-08T00:23:26;17.20;;;13.87;;
8480;SDS011;4277;51.354;6.740;2024-03-08T00:25:53;16.47;;;13.57;;
8480;SDS011;4277;51.354;6.740;2024-03-08T00:28:20;21.43;;;14.53;;
8480;SDS011;4277;51.354;6.740;2024-03-08T00:30:46;16.67;;;13.20;;
8480;SDS011;4277;51.354;6.740;2024-03-08T00:33:12;18.13;;;13.70;;
8480;SDS011;4277;51.354;6.740;2024-03-08T00:35:38;17.33;;;14.23;;
8480;SDS011;4277;51.354;6.740;2024-03-08T00:38:04;17.90;;;14.07;;
8480;SDS011;4277;51.354;6.740;2024-03-08T00:40:30;18.47;;;14.40;;
8480;SDS011;4277;51.354;6.740;2024-03-08T00:42:56;19.57;;;14.37;;
8480;SDS011;4277;51.354;6.740;2024-03-08T00:45:22;20.63;;;15.00;;
8480;SDS011;4277;51.354;6.740;2024-03-08T00:47:48;15.80;;;12.87;;
8480;SDS011;4277;51.354;6.740;2024-03-08T00:50:14;15.70;;;12.73;;
8480;SDS011;4277;51.354;6.740;2024-03-08T00:52:40;20.47;;;15.40;;
8480;SDS011;4277;51.354;6.740;2024-03-08T00:55:06;16.43;;;14.00;;
8480;SDS011;4277;51.354;6.740;2024-03-08T00:57:35;19.77;;;14.83;;
8480;SDS011;4277;51.354;6.740;2024-03-08T01:00:02;19.00;;;14.93;;
8480;SDS011;4277;51.354;6.740;2024-03-08T01:02:28;21.60;;;15.53;;
8480;SDS011;4277;51.354;6.740;2024-03-08T01:04:54;18.20;;;14.97;;
8480;SDS011;4277;51.354;6.740;2024-03-08T01:07:20;20.50;;;14.10;;
8480;SDS011;4277;51.354;6.740;2024-03-08T01:09:46;18.93;;;15.00;;
8480;SDS011;4277;51.354;6.740;2024-03-08T01:12:12;16.17;;;13.00;;
8480;SDS011;4277;51.354;6.740;2024-03-08T01:14:38;18.33;;;14.33;;
8480;SDS011;4277;51.354;6.740;2024-03-08T01:17:04;20.93;;;15.40;;
8480;SDS011;4277;51.354;6.740;2024-03-08T01:19:30;20.33;;;14.90;;
8480;SDS011;4277;51.354;6.740;2024-03-08T01:21:58;21.83;;;15.27;;
8480;SDS011;4277;51.354;6.740;2024-03-08T01:24:24;19.93;;;14.70;;
8480;SDS011;4277;51.354;6.740;2024-03-08T01:26:50;19.63;;;14.87;;
8480;SDS011;4277;51.354;6.740;2024-03-08T01:29:16;19.00;;;15.03;;
8480;SDS011;4277;51.354;6.740;2024-03-08T01:31:42;20.43;;;15.97;;
8480;SDS011;4277;51.354;6.740;2024-03-08T01:34:08;22.67;;;15.20;;
8480;SDS011;4277;51.354;6.740;2024-03-08T01:36:34;19.93;;;15.90;;
8480;SDS011;4277;51.354;6.740;2024-03-08T01:39:02;20.83;;;14.80;;
8480;SDS011;4277;51.354;6.740;2024-03-08T01:41:32;22.10;;;15.80;;
8480;SDS011;4277;51.354;6.740;2024-03-08T01:43:58;20.27;;;14.33;;
8480;SDS011;4277;51.354;6.740;2024-03-08T01:46:24;18.00;;;14.63;;
8480;SDS011;4277;51.354;6.740;2024-03-08T01:48:53;20.63;;;15.10;;
8480;SDS011;4277;51.354;6.740;2024-03-08T01:51:19;18.87;;;14.83;;
8480;SDS011;4277;51.354;6.740;2024-03-08T01:53:46;18.87;;;15.43;;
8480;SDS011;4277;51.354;6.740;2024-03-08T01:56:12;16.97;;;13.47;;
8480;SDS011;4277;51.354;6.740;2024-03-08T01:58:40;18.87;;;14.47;;
8480;SDS011;4277;51.354;6.740;2024-03-08T02:01:08;19.53;;;14.77;;
8480;SDS011;4277;51.354;6.740;2024-03-08T02:03:34;20.37;;;15.93;;
8480;SDS011;4277;51.354;6.740;2024-03-08T02:06:00;21.07;;;16.07;;
8480;SDS011;4277;51.354;6.740;2024-03-08T02:08:26;20.13;;;15.37;;
8480;SDS011;4277;51.354;6.740;2024-03-08T02:10:52;19.10;;;14.93;;
8480;SDS011;4277;51.354;6.740;2024-03-08T02:13:18;19.27;;;14.67;;
8480;SDS011;4277;51.354;6.740;2024-03-08T02:15:54;19.03;;;14.77;;
8480;SDS011;4277;51.354;6.740;2024-03-08T02:18:20;19.53;;;15.13;;
8480;SDS011;4277;51.354;6.740;2024-03-08T02:20:50;24.17;;;16.40;;
8480;SDS011;4277;51.354;6.740;2024-03-08T02:23:17;20.93;;;15.60;;
8480;SDS011;4277;51.354;6.740;2024-03-08T02:25:43;21.37;;;16.10;;
8480;SDS011;4277;51.354;6.740;2024-03-08T02:28:10;22.17;;;16.43;;
8480;SDS011;4277;51.354;6.740;2024-03-08T02:30:36;20.27;;;15.97;;
8480;SDS011;4277;51.354;6.740;2024-03-08T02:33:03;23.27;;;16.13;;
8480;SDS011;4277;51.354;6.740;2024-03-08T02:35:29;22.13;;;16.37;;
8480;SDS011;4277;51.354;6.740;2024-03-08T02:37:55;22.20;;;16.07;;
8480;SDS011;4277;51.354;6.740;2024-03-08T02:40:21;20.67;;;15.63;;
8480;SDS011;4277;51.354;6.740;2024-03-08T02:42:47;21.17;;;15.20;;
8480;SDS011;4277;51.354;6.740;2024-03-08T02:45:13;22.63;;;17.30;;
8480;SDS011;4277;51.354;6.740;2024-03-08T02:47:39;19.77;;;14.40;;
8480;SDS011;4277;51.354;6.740;2024-03-08T02:50:06;21.67;;;15.37;;
8480;SDS011;4277;51.354;6.740;2024-03-08T02:52:35;20.60;;;16.00;;
8480;SDS011;4277;51.354;6.740;2024-03-08T02:55:01;20.63;;;14.87;;
8480;SDS011;4277;51.354;6.740;2024-03-08T02:57:27;20.57;;;15.00;;
8480;SDS011;4277;51.354;6.740;2024-03-08T02:59:53;21.30;;;16.00;;
8480;SDS011;4277;51.354;6.740;2024-03-08T03:02:19;22.13;;;17.47;;
8480;SDS011;4277;51.354;6.740;2024-03-08T03:04:46;22.63;;;16.90;;
8480;SDS011;4277;51.354;6.740;2024-03-08T03:07:12;22.80;;;16.70;;
8480;SDS011;4277;51.354;6.740;2024-03-08T03:09:38;20.73;;;16.53;;
8480;SDS011;4277;51.354;6.740;2024-03-08T03:12:04;24.33;;;18.27;;
8480;SDS011;4277;51.354;6.740;2024-03-08T03:14:34;22.90;;;16.73;;
8480;SDS011;4277;51.354;6.740;2024-03-08T03:17:03;21.20;;;15.97;;
8480;SDS011;4277;51.354;6.740;2024-03-08T03:19:29;22.33;;;16.67;;
8480;SDS011;4277;51.354;6.740;2024-03-08T03:21:55;22.53;;;17.00;;
8480;SDS011;4277;51.354;6.740;2024-03-08T03:24:22;22.97;;;17.53;;
8480;SDS011;4277;51.354;6.740;2024-03-08T03:26:48;24.30;;;17.00;;
8480;SDS011;4277;51.354;6.740;2024-03-08T03:29:14;21.47;;;16.33;;
8480;SDS011;4277;51.354;6.740;2024-03-08T03:31:41;22.90;;;16.23;;
8480;SDS011;4277;51.354;6.740;2024-03-08T03:34:11;26.23;;;18.10;;
8480;SDS011;4277;51.354;6.740;2024-03-08T03:36:37;21.77;;;16.57;;
8480;SDS011;4277;51.354;6.740;2024-03-08T03:39:07;22.67;;;16.60;;
8480;SDS011;4277;51.354;6.740;2024-03-08T03:41:40;23.40;;;16.47;;
8480;SDS011;4277;51.354;6.740;2024-03-08T03:44:06;26.63;;;18.30;;
8480;SDS011;4277;51.354;6.740;2024-03-08T03:46:33;26.50;;;19.33;;
8480;SDS011;4277;51.354;6.740;2024-03-08T03:48:59;26.27;;;17.77;;
8480;SDS011;4277;51.354;6.740;2024-03-08T03:51:25;29.67;;;19.80;;
8480;SDS011;4277;51.354;6.740;2024-03-08T03:53:51;25.77;;;18.50;;
8480;SDS011;4277;51.354;6.740;2024-03-08T03:56:18;26.57;;;18.97;;
8480;SDS011;4277;51.354;6.740;2024-03-08T03:58:44;27.77;;;18.73;;
8480;SDS011;4277;51.354;6.740;2024-03-08T04:01:10;26.63;;;18.40;;
8480;SDS011;4277;51.354;6.740;2024-03-08T04:03:36;25.53;;;18.37;;
8480;SDS011;4277;51.354;6.740;2024-03-08T04:06:03;25.70;;;17.90;;
8480;SDS011;4277;51.354;6.740;2024-03-08T04:08:29;29.60;;;17.97;;
8480;SDS011;4277;51.354;6.740;2024-03-08T04:10:56;23.23;;;17.10;;
8480;SDS011;4277;51.354;6.740;2024-03-08T04:13:23;23.23;;;15.83;;
8480;SDS011;4277;51.354;6.740;2024-03-08T04:15:49;25.80;;;18.07;;
8480;SDS011;4277;51.354;6.740;2024-03-08T04:18:15;22.93;;;17.40;;
8480;SDS011;4277;51.354;6.740;2024-03-08T04:20:41;25.13;;;17.43;;
8480;SDS011;4277;51.354;6.740;2024-03-08T04:23:07;24.70;;;17.63;;
8480;SDS011;4277;51.354;6.740;2024-03-08T04:25:33;23.83;;;17.43;;
8480;SDS011;4277;51.354;6.740;2024-03-08T04:27:58;25.60;;;17.97;;
8480;SDS011;4277;51.354;6.740;2024-03-08T04:30:25;25.30;;;17.30;;
8480;SDS011;4277;51.354;6.740;2024-03-08T04:32:53;26.80;;;17.97;;
8480;SDS011;4277;51.354;6.740;2024-03-08T04:35:19;24.70;;;18.30;;
8480;SDS011;4277;51.354;6.740;2024-03-08T04:37:48;25.27;;;17.77;;
8480;SDS011;4277;51.354;6.740;2024-03-08T04:40:14;23.77;;;17.70;;
8480;SDS011;4277;51.354;6.740;2024-03-08T04:42:40;25.00;;;17.70;;
8480;SDS011;4277;51.354;6.740;2024-03-08T04:45:06;24.37;;;18.13;;
8480;SDS011;4277;51.354;6.740;2024-03-08T04:47:36;25.50;;;18.87;;
8480;SDS011;4277;51.354;6.740;2024-03-08T04:50:02;25.13;;;18.33;;
8480;SDS011;4277;51.354;6.740;2024-03-08T04:52:29;25.33;;;17.43;;
8480;SDS011;4277;51.354;6.740;2024-03-08T04:54:55;25.57;;;17.13;;
8480;SDS011;4277;51.354;6.740;2024-03-08T04:57:21;26.37;;;17.47;;
8480;SDS011;4277;51.354;6.740;2024-03-08T04:59:47;27.53;;;18.33;;
8480;SDS011;4277;51.354;6.740;2024-03-08T05:02:13;26.03;;;18.67;;
8480;SDS011;4277;51.354;6.740;2024-03-08T05:04:39;26.60;;;18.57;;
8480;SDS011;4277;51.354;6.740;2024-03-08T05:07:05;28.53;;;19.03;;
8480;SDS011;4277;51.354;6.740;2024-03-08T05:09:31;27.67;;;18.70;;
8480;SDS011;4277;51.354;6.740;2024-03-08T05:11:57;28.77;;;19.10;;
8480;SDS011;4277;51.354;6.740;2024-03-08T05:14:24;26.70;;;18.87;;
8480;SDS011;4277;51.354;6.740;2024-03-08T05:16:50;24.33;;;17.90;;
8480;SDS011;4277;51.354;6.740;2024-03-08T05:19:16;25.83;;;17.70;;
8480;SDS011;4277;51.354;6.740;2024-03-08T05:21:43;25.23;;;19.03;;
8480;SDS011;4277;51.354;6.740;2024-03-08T05:24:09;25.83;;;17.30;;
8480;SDS011;4277;51.354;6.740;2024-03-08T05:26:36;30.23;;;19.83;;
8480;SDS011;4277;51.354;6.740;2024-03-08T05:29:05;26.23;;;18.10;;
8480;SDS011;4277;51.354;6.740;2024-03-08T05:31:31;26.97;;;18.93;;
8480;SDS011;4277;51.354;6.740;2024-03-08T05:34:02;24.73;;;17.67;;
8480;SDS011;4277;51.354;6.740;2024-03-08T05:36:27;26.80;;;19.17;;
8480;SDS011;4277;51.354;6.740;2024-03-08T05:38:53;29.10;;;20.60;;
8480;SDS011;4277;51.354;6.740;2024-03-08T05:41:19;26.47;;;18.43;;
8480;SDS011;4277;51.354;6.740;2024-03-08T05:43:45;40.40;;;19.13;;
8480;SDS011;4277;51.354;6.740;2024-03-08T05:46:15;28.73;;;19.53;;
8480;SDS011;4277;51.354;6.740;2024-03-08T05:48:41;24.83;;;17.33;;
8480;SDS011;4277;51.354;6.740;2024-03-08T05:51:07;29.07;;;20.03;;
8480;SDS011;4277;51.354;6.740;2024-03-08T05:53:33;24.33;;;17.83;;
8480;SDS011;4277;51.354;6.740;2024-03-08T05:55:59;27.27;;;19.67;;
8480;SDS011;4277;51.354;6.740;2024-03-08T05:58:27;27.53;;;18.80;;
8480;SDS011;4277;51.354;6.740;2024-03-08T06:00:55;25.90;;;18.57;;
8480;SDS011;4277;51.354;6.740;2024-03-08T06:03:21;28.67;;;19.50;;
8480;SDS011;4277;51.354;6.740;2024-03-08T06:05:48;26.90;;;19.43;;
8480;SDS011;4277;51.354;6.740;2024-03-08T06:08:14;27.50;;;19.33;;
8480;SDS011;4277;51.354;6.740;2024-03-08T06:10:40;27.20;;;18.00;;
8480;SDS011;4277;51.354;6.740;2024-03-08T06:13:06;30.07;;;19.77;;
8480;SDS011;4277;51.354;6.740;2024-03-08T06:15:32;26.93;;;19.97;;
8480;SDS011;4277;51.354;6.740;2024-03-08T06:17:59;29.23;;;20.63;;
8480;SDS011;4277;51.354;6.740;2024-03-08T06:20:25;28.03;;;18.73;;
8480;SDS011;4277;51.354;6.740;2024-03-08T06:22:51;28.00;;;20.07;;
8480;SDS011;4277;51.354;6.740;2024-03-08T06:25:17;32.90;;;19.77;;
8480;SDS011;4277;51.354;6.740;2024-03-08T06:27:43;30.80;;;19.47;;
8480;SDS011;4277;51.354;6.740;2024-03-08T06:30:11;29.07;;;19.37;;
8480;SDS011;4277;51.354;6.740;2024-03-08T06:32:37;32.30;;;21.00;;
8480;SDS011;4277;51.354;6.740;2024-03-08T06:35:04;32.67;;;20.70;;
8480;SDS011;4277;51.354;6.740;2024-03-08T06:37:31;32.23;;;21.40;;
8480;SDS011;4277;51.354;6.740;2024-03-08T06:39:57;36.23;;;21.87;;
8480;SDS011;4277;51.354;6.740;2024-03-08T06:42:23;31.60;;;21.63;;
8480;SDS011;4277;51.354;6.740;2024-03-08T06:44:49;29.87;;;19.57;;
8480;SDS011;4277;51.354;6.740;2024-03-08T06:47:15;29.73;;;19.97;;
8480;SDS011;4277;51.354;6.740;2024-03-08T06:49:42;37.30;;;22.87;;
8480;SDS011;4277;51.354;6.740;2024-03-08T06:52:11;28.30;;;19.57;;
8480;SDS011;4277;51.354;6.740;2024-03-08T06:54:37;32.67;;;22.77;;
8480;SDS011;4277;51.354;6.740;2024-03-08T06:57:03;30.83;;;20.87;;
8480;SDS011;4277;51.354;6.740;2024-03-08T06:59:30;33.63;;;22.17;;
8480;SDS011;4277;51.354;6.740;2024-03-08T07:01:56;29.47;;;20.63;;
8480;SDS011;4277;51.354;6.740;2024-03-08T07:04:24;32.07;;;21.30;;
8480;SDS011;4277;51.354;6.740;2024-03-08T07:06:54;34.67;;;22.97;;
8480;SDS011;4277;51.354;6.740;2024-03-08T07:09:20;41.30;;;22.80;;
8480;SDS011;4277;51.354;6.740;2024-03-08T07:11:46;32.50;;;21.03;;
8480;SDS011;4277;51.354;6.740;2024-03-08T07:14:12;30.00;;;19.93;;
8480;SDS011;4277;51.354;6.740;2024-03-08T07:16:40;32.70;;;20.90;;
8480;SDS011;4277;51.354;6.740;2024-03-08T07:19:06;30.87;;;20.03;;
8480;SDS011;4277;51.354;6.740;2024-03-08T07:21:32;31.63;;;20.23;;
8480;SDS011;4277;51.354;6.740;2024-03-08T07:23:58;33.87;;;20.10;;
8480;SDS011;4277;51.354;6.740;2024-03-08T07:26:24;28.27;;;19.07;;
8480;SDS011;4277;51.354;6.740;2024-03-08T07:28:50;27.33;;;18.57;;
8480;SDS011;4277;51.354;6.740;2024-03-08T07:31:16;27.00;;;19.20;;
8480;SDS011;4277;51.354;6.740;2024-03-08T07:33:51;27.43;;;17.83;;
8480;SDS011;4277;51.354;6.740;2024-03-08T07:36:18;29.63;;;19.87;;
8480;SDS011;4277;51.354;6.740;2024-03-08T07:38:44;30.47;;;20.50;;
8480;SDS011;4277;51.354;6.740;2024-03-08T07:41:13;34.97;;;21.20;;
8480;SDS011;4277;51.354;6.740;2024-03-08T07:43:41;30.87;;;21.50;;
8480;SDS011;4277;51.354;6.740;2024-03-08T07:46:07;35.80;;;20.90;;
8480;SDS011;4277;51.354;6.740;2024-03-08T07:48:35;32.87;;;21.17;;
8480;SDS011;4277;51.354;6.740;2024-03-08T07:51:01;32.10;;;20.17;;
8480;SDS011;4277;51.354;6.740;2024-03-08T07:53:30;31.93;;;20.03;;
8480;SDS011;4277;51.354;6.740;2024-03-08T07:55:56;31.03;;;19.93;;
8480;SDS011;4277;51.354;6.740;2024-03-08T07:58:22;29.73;;;18.97;;
8480;SDS011;4277;51.354;6.740;2024-03-08T08:00:48;28.70;;;19.10;;
8480;SDS011;4277;51.354;6.740;2024-03-08T08:03:14;25.30;;;18.53;;
8480;SDS011;4277;51.354;6.740;2024-03-08T08:05:41;27.40;;;19.10;;
8480;SDS011;4277;51.354;6.740;2024-03-08T08:08:10;25.67;;;18.20;;
8480;SDS011;4277;51.354;6.740;2024-03-08T08:10:36;27.00;;;18.00;;
8480;SDS011;4277;51.354;6.740;2024-03-08T08:13:02;23.33;;;16.83;;
8480;SDS011;4277;51.354;6.740;2024-03-08T08:15:31;25.53;;;18.90;;
8480;SDS011;4277;51.354;6.740;2024-03-08T08:18:00;24.87;;;17.77;;
8480;SDS011;4277;51.354;6.740;2024-03-08T08:20:27;25.50;;;18.10;;
8480;SDS011;4277;51.354;6.740;2024-03-08T08:22:54;26.30;;;19.03;;
8480;SDS011;4277;51.354;6.740;2024-03-08T08:25:20;23.97;;;17.43;;
8480;SDS011;4277;51.354;6.740;2024-03-08T08:27:49;24.93;;;17.90;;
8480;SDS011;4277;51.354;6.740;2024-03-08T08:30:15;23.50;;;17.60;;
8480;SDS011;4277;51.354;6.740;2024-03-08T08:32:41;24.30;;;17.23;;
8480;SDS011;4277;51.354;6.740;2024-03-08T08:35:07;21.53;;;16.30;;
8480;SDS011;4277;51.354;6.740;2024-03-08T08:37:34;21.47;;;15.47;;
8480;SDS011;4277;51.354;6.740;2024-03-08T08:40:03;21.90;;;15.63;;
8480;SDS011;4277;51.354;6.740;2024-03-08T08:42:34;20.63;;;15.57;;
8480;SDS011;4277;51.354;6.740;2024-03-08T08:45:00;20.80;;;15.20;;
8480;SDS011;4277;51.354;6.740;2024-03-08T08:47:26;20.83;;;15.50;;
8480;SDS011;4277;51.354;6.740;2024-03-08T08:49:53;21.13;;;15.10;;
8480;SDS011;4277;51.354;6.740;2024-03-08T08:52:19;21.27;;;15.10;;
8480;SDS011;4277;51.354;6.740;2024-03-08T08:54:45;20.90;;;15.10;;
8480;SDS011;4277;51.354;6.740;2024-03-08T08:57:11;21.87;;;15.30;;
8480;SDS011;4277;51.354;6.740;2024-03-08T08:59:38;21.43;;;15.20;;
8480;SDS011;4277;51.354;6.740;2024-03-08T09:02:05;20.83;;;15.40;;
8480;SDS011;4277;51.354;6.740;2024-03-08T09:04:31;21.20;;;15.17;;
8480;SDS011;4277;51.354;6.740;2024-03-08T09:06:57;21.63;;;14.77;;
8480;SDS011;4277;51.354;6.740;2024-03-08T09:09:23;19.70;;;14.03;;
8480;SDS011;4277;51.354;6.740;2024-03-08T09:11:50;18.73;;;14.63;;
8480;SDS011;4277;51.354;6.740;2024-03-08T09:14:16;21.13;;;14.97;;
8480;SDS011;4277;51.354;6.740;2024-03-08T09:16:42;19.03;;;14.70;;
8480;SDS011;4277;51.354;6.740;2024-03-08T09:19:08;20.47;;;14.50;;
8480;SDS011;4277;51.354;6.740;2024-03-08T09:21:35;19.70;;;14.67;;
8480;SDS011;4277;51.354;6.740;2024-03-08T09:24:02;18.07;;;14.03;;
8480;SDS011;4277;51.354;6.740;2024-03-08T09:26:28;17.30;;;13.83;;
8480;SDS011;4277;51.354;6.740;2024-03-08T09:28:54;20.40;;;13.63;;
8480;SDS011;4277;51.354;6.740;2024-03-08T09:31:20;18.13;;;13.40;;
8480;SDS011;4277;51.354;6.740;2024-03-08T09:33:46;16.13;;;13.43;;
8480;SDS011;4277;51.354;6.740;2024-03-08T09:36:12;17.63;;;13.90;;
8480;SDS011;4277;51.354;6.740;2024-03-08T09:38:39;18.17;;;13.77;;
8480;SDS011;4277;51.354;6.740;2024-03-08T09:41:05;16.77;;;13.13;;
8480;SDS011;4277;51.354;6.740;2024-03-08T09:43:31;17.80;;;13.30;;
8480;SDS011;4277;51.354;6.740;2024-03-08T09:45:57;17.13;;;13.23;;
8480;SDS011;4277;51.354;6.740;2024-03-08T09:48:23;15.07;;;12.20;;
8480;SDS011;4277;51.354;6.740;2024-03-08T09:50:50;17.90;;;13.67;;
8480;SDS011;4277;51.354;6.740;2024-03-08T09:53:16;16.07;;;12.63;;
8480;SDS011;4277;51.354;6.740;2024-03-08T09:55:42;16.53;;;13.23;;
8480;SDS011;4277;51.354;6.740;2024-03-08T09:58:11;15.87;;;12.30;;
8480;SDS011;4277;51.354;6.740;2024-03-08T10:00:46;17.77;;;12.30;;
8480;SDS011;4277;51.354;6.740;2024-03-08T10:03:12;17.00;;;12.33;;
8480;SDS011;4277;51.354;6.740;2024-03-08T10:05:39;15.33;;;11.93;;
8480;SDS011;4277;51.354;6.740;2024-03-08T10:08:05;15.63;;;12.03;;
8480;SDS011;4277;51.354;6.740;2024-03-08T10:10:33;17.53;;;12.37;;
8480;SDS011;4277;51.354;6.740;2024-03-08T10:12:59;13.77;;;11.53;;
8480;SDS011;4277;51.354;6.740;2024-03-08T10:15:29;13.67;;;11.43;;
8480;SDS011;4277;51.354;6.740;2024-03-08T10:17:58;18.30;;;11.93;;
8480;SDS011;4277;51.354;6.740;2024-03-08T10:20:24;13.13;;;11.03;;
8480;SDS011;4277;51.354;6.740;2024-03-08T10:22:51;15.93;;;11.70;;
8480;SDS011;4277;51.354;6.740;2024-03-08T10:25:18;14.10;;;11.30;;
8480;SDS011;4277;51.354;6.740;2024-03-08T10:27:44;18.37;;;11.50;;
8480;SDS011;4277;51.354;6.740;2024-03-08T10:30:14;12.83;;;11.00;;
8480;SDS011;4277;51.354;6.740;2024-03-08T10:32:44;14.50;;;11.50;;
8480;SDS011;4277;51.354;6.740;2024-03-08T10:35:10;12.77;;;10.80;;
8480;SDS011;4277;51.354;6.740;2024-03-08T10:37:40;13.70;;;11.07;;
8480;SDS011;4277;51.354;6.740;2024-03-08T10:40:09;12.43;;;10.50;;
8480;SDS011;4277;51.354;6.740;2024-03-08T10:42:38;13.10;;;10.67;;
8480;SDS011;4277;51.354;6.740;2024-03-08T10:45:40;13.97;;;10.40;;
8480;SDS011;4277;51.354;6.740;2024-03-08T10:50:37;12.33;;;9.97;;
8480;SDS011;4277;51.354;6.740;2024-03-08T10:53:04;13.10;;;9.87;;
8480;SDS011;4277;51.354;6.740;2024-03-08T10:55:31;11.50;;;9.73;;
8480;SDS011;4277;51.354;6.740;2024-03-08T10:58:01;13.70;;;10.00;;
8480;SDS011;4277;51.354;6.740;2024-03-08T11:00:28;12.97;;;10.10;;
8480;SDS011;4277;51.354;6.740;2024-03-08T11:02:56;13.27;;;9.63;;
8480;SDS011;4277;51.354;6.740;2024-03-08T11:05:32;13.13;;;9.97;;
8480;SDS011;4277;51.354;6.740;2024-03-08T11:08:03;12.00;;;9.47;;
8480;SDS011;4277;51.354;6.740;2024-03-08T11:10:29;12.13;;;8.60;;
8480;SDS011;4277;51.354;6.740;2024-03-08T11:12:55;10.13;;;8.60;;
8480;SDS011;4277;51.354;6.740;2024-03-08T11:15:23;10.63;;;9.00;;
8480;SDS011;4277;51.354;6.740;2024-03-08T11:17:50;12.30;;;8.60;;
8480;SDS011;4277;51.354;6.740;2024-03-08T11:20:19;10.73;;;8.67;;
8480;SDS011;4277;51.354;6.740;2024-03-08T11:22:55;10.43;;;8.87;;
8480;SDS011;4277;51.354;6.740;2024-03-08T11:28:17;11.07;;;9.47;;
8480;SDS011;4277;51.354;6.740;2024-03-08T11:31:28;12.40;;;9.30;;
8480;SDS011;4277;51.354;6.740;2024-03-08T11:33:30;11.10;;;9.03;;
8480;SDS011;4277;51.354;6.740;2024-03-08T11:36:03;11.97;;;9.07;;
8480;SDS011;4277;51.354;6.740;2024-03-08T11:38:31;10.40;;;8.87;;
8480;SDS011;4277;51.354;6.740;2024-03-08T11:40:57;12.40;;;9.53;;
8480;SDS011;4277;51.354;6.740;2024-03-08T11:43:23;12.43;;;9.23;;
8480;SDS011;4277;51.354;6.740;2024-03-08T11:45:49;10.83;;;9.37;;
8480;SDS011;4277;51.354;6.740;2024-03-08T11:48:16;11.40;;;8.87;;
8480;SDS011;4277;51.354;6.740;2024-03-08T11:50:42;10.63;;;9.17;;
8480;SDS011;4277;51.354;6.740;2024-03-08T11:53:08;10.37;;;8.73;;
8480;SDS011;4277;51.354;6.740;2024-03-08T11:55:34;10.27;;;8.70;;
8480;SDS011;4277;51.354;6.740;2024-03-08T11:58:04;10.33;;;8.93;;
8480;SDS011;4277;51.354;6.740;2024-03-08T12:00:33;9.90;;;8.27;;
8480;SDS011;4277;51.354;6.740;2024-03-08T12:05:29;11.00;;;8.63;;
8480;SDS011;4277;51.354;6.740;2024-03-08T12:08:02;10.23;;;8.77;;
8480;SDS011;4277;51.354;6.740;2024-03-08T12:10:30;9.17;;;8.10;;
8480;SDS011;4277;51.354;6.740;2024-03-08T12:12:57;11.13;;;8.77;;
8480;SDS011;4277;51.354;6.740;2024-03-08T12:15:26;9.50;;;8.27;;
8480;SDS011;4277;51.354;6.740;2024-03-08T12:17:54;9.47;;;8.37;;
8480;SDS011;4277;51.354;6.740;2024-03-08T12:20:26;10.30;;;8.37;;
8480;SDS011;4277;51.354;6.740;2024-03-08T12:22:56;9.17;;;8.13;;
8480;SDS011;4277;51.354;6.740;2024-03-08T12:25:22;8.90;;;8.00;;
8480;SDS011;4277;51.354;6.740;2024-03-08T12:27:48;9.37;;;7.83;;
8480;SDS011;4277;51.354;6.740;2024-03-08T12:30:26;8.90;;;8.00;;
8480;SDS011;4277;51.354;6.740;2024-03-08T12:32:59;10.63;;;8.23;;
8480;SDS011;4277;51.354;6.740;2024-03-08T12:35:26;10.53;;;8.00;;
8480;SDS011;4277;51.354;6.740;2024-03-08T12:37:53;12.53;;;8.53;;
8480;SDS011;4277;51.354;6.740;2024-03-08T12:40:21;8.33;;;7.33;;
8480;SDS011;4277;51.354;6.740;2024-03-08T12:42:51;8.93;;;7.83;;
8480;SDS011;4277;51.354;6.740;2024-03-08T12:45:17;9.40;;;7.83;;
8480;SDS011;4277;51.354;6.740;2024-03-08T12:47:43;10.50;;;8.20;;
8480;SDS011;4277;51.354;6.740;2024-03-08T12:50:10;10.83;;;8.37;;
8480;SDS011;4277;51.354;6.740;2024-03-08T12:52:36;12.03;;;8.40;;
8480;SDS011;4277;51.354;6.740;2024-03-08T12:55:02;10.40;;;8.10;;
8480;SDS011;4277;51.354;6.740;2024-03-08T12:57:28;9.23;;;7.83;;
8480;SDS011;4277;51.354;6.740;2024-03-08T12:59:54;9.60;;;8.17;;
8480;SDS011;4277;51.354;6.740;2024-03-08T13:02:20;11.90;;;7.60;;
8480;SDS011;4277;51.354;6.740;2024-03-08T13:04:46;8.57;;;7.67;;
8480;SDS011;4277;51.354;6.740;2024-03-08T13:07:20;8.47;;;7.57;;
8480;SDS011;4277;51.354;6.740;2024-03-08T13:09:46;8.50;;;7.60;;
8480;SDS011;4277;51.354;6.740;2024-03-08T13:12:12;8.67;;;7.00;;
8480;SDS011;4277;51.354;6.740;2024-03-08T13:14:40;9.23;;;7.57;;
8480;SDS011;4277;51.354;6.740;2024-03-08T13:17:06;8.77;;;7.00;;
8480;SDS011;4277;51.354;6.740;2024-03-08T13:19:36;9.30;;;7.17;;
8480;SDS011;4277;51.354;6.740;2024-03-08T13:22:03;9.00;;;7.13;;
8480;SDS011;4277;51.354;6.740;2024-03-08T13:24:32;10.13;;;7.50;;
8480;SDS011;4277;51.354;6.740;2024-03-08T13:27:00;9.50;;;7.50;;
8480;SDS011;4277;51.354;6.740;2024-03-08T13:29:27;9.33;;;7.20;;
8480;SDS011;4277;51.354;6.740;2024-03-08T13:31:53;9.10;;;7.20;;
8480;SDS011;4277;51.354;6.740;2024-03-08T13:34:21;9.83;;;7.43;;
8480;SDS011;4277;51.354;6.740;2024-03-08T13:36:53;8.93;;;7.60;;
8480;SDS011;4277;51.354;6.740;2024-03-08T13:39:24;12.57;;;8.57;;
8480;SDS011;4277;51.354;6.740;2024-03-08T13:41:51;9.37;;;7.60;;
8480;SDS011;4277;51.354;6.740;2024-03-08T13:44:17;10.27;;;7.87;;
8480;SDS011;4277;51.354;6.740;2024-03-08T13:46:43;9.23;;;7.73;;
8480;SDS011;4277;51.354;6.740;2024-03-08T13:49:09;12.13;;;7.67;;
8480;SDS011;4277;51.354;6.740;2024-03-08T13:51:35;9.63;;;7.20;;
8480;SDS011;4277;51.354;6.740;2024-03-08T13:54:01;10.83;;;7.47;;
8480;SDS011;4277;51.354;6.740;2024-03-08T13:56:31;9.93;;;7.00;;
8480;SDS011;4277;51.354;6.740;2024-03-08T13:58:57;7.73;;;6.80;;
8480;SDS011;4277;51.354;6.740;2024-03-08T14:01:23;7.93;;;6.60;;
8480;SDS011;4277;51.354;6.740;2024-03-08T14:03:50;9.53;;;6.67;;
8480;SDS011;4277;51.354;6.740;2024-03-08T14:06:16;8.63;;;6.67;;
8480;SDS011;4277;51.354;6.740;2024-03-08T14:08:42;9.83;;;7.23;;
8480;SDS011;4277;51.354;6.740;2024-03-08T14:11:08;8.97;;;7.73;;
8480;SDS011;4277;51.354;6.740;2024-03-08T14:13:42;7.70;;;6.90;;
8480;SDS011;4277;51.354;6.740;2024-03-08T14:16:10;8.20;;;7.10;;
8480;SDS011;4277;51.354;6.740;2024-03-08T14:18:36;10.53;;;7.07;;
8480;SDS011;4277;51.354;6.740;2024-03-08T14:21:02;8.23;;;7.10;;
8480;SDS011;4277;51.354;6.740;2024-03-08T14:23:29;10.50;;;6.90;;
8480;SDS011;4277;51.354;6.740;2024-03-08T14:25:55;7.87;;;7.00;;
8480;SDS011;4277;51.354;6.740;2024-03-08T14:28:21;8.83;;;7.37;;
8480;SDS011;4277;51.354;6.740;2024-03-08T14:30:47;10.00;;;7.10;;
8480;SDS011;4277;51.354;6.740;2024-03-08T14:33:14;9.90;;;7.53;;
8480;SDS011;4277;51.354;6.740;2024-03-08T14:35:41;10.43;;;7.90;;
8480;SDS011;4277;51.354;6.740;2024-03-08T14:38:08;10.37;;;7.60;;
8480;SDS011;4277;51.354;6.740;2024-03-08T14:40:35;9.47;;;7.87;;
8480;SDS011;4277;51.354;6.740;2024-03-08T14:43:01;8.43;;;7.50;;
8480;SDS011;4277;51.354;6.740;2024-03-08T14:45:27;8.47;;;7.57;;
8480;SDS011;4277;51.354;6.740;2024-03-08T14:47:53;8.77;;;7.40;;
8480;SDS011;4277;51.354;6.740;2024-03-08T14:50:20;8.97;;;7.70;;
8480;SDS011;4277;51.354;6.740;2024-03-08T14:52:47;65.43;;;10.98;;
8480;SDS011;4277;51.354;6.740;2024-03-08T14:55:14;19.97;;;9.27;;
8480;SDS011;4277;51.354;6.740;2024-03-08T14:57:40;17.67;;;8.27;;
8480;SDS011;4277;51.354;6.740;2024-03-08T15:00:07;11.20;;;7.90;;